createdAt,value
2023-01-18T11:50:55.015Z,97521.88
2023-01-18T11:53:43.867Z,97518.22
2023-01-18T11:56:32.176Z,97520.59
2023-01-18T11:59:13.544Z,97522.16
2023-01-18T12:02:12.060Z,97515.66
2023-01-18T12:04:58.686Z,97526.88
2023-01-18T12:07:45.973Z,97530.56
2023-01-18T12:10:23.533Z,97528.09
2023-01-18T12:13:21.396Z,97526.38
2023-01-18T12:16:05.497Z,97531.28
2023-01-18T12:19:06.096Z,97536.94
2023-01-18T12:21:49.791Z,97536.63
2023-01-18T12:24:35.836Z,97533.63
2023-01-18T12:27:17.948Z,97542.94
2023-01-18T12:30:14.754Z,97562.00
2023-01-18T12:33:06.597Z,97565.19
2023-01-18T12:35:51.476Z,97565.09
2023-01-18T12:38:29.328Z,97560.53
2023-01-18T12:41:31.052Z,97558.47
2023-01-18T12:44:44.757Z,97564.59
2023-01-18T12:47:32.819Z,97571.69
2023-01-18T12:50:17.008Z,97582.91
2023-01-18T12:52:53.999Z,97582.91
2023-01-18T12:55:31.634Z,97581.22
2023-01-18T12:58:07.349Z,97583.84
2023-01-18T13:00:46.121Z,97597.06
2023-01-18T13:03:25.240Z,97602.53
2023-01-18T13:06:00.271Z,97606.16
2023-01-18T13:08:43.167Z,97605.47
2023-01-18T13:11:22.376Z,97609.28
2023-01-18T13:14:08.909Z,97601.72
2023-01-18T13:16:47.383Z,97609.19
2023-01-18T13:19:25.872Z,97612.31
2023-01-18T13:22:07.736Z,97617.97
2023-01-18T13:24:52.549Z,97619.88
2023-01-18T13:27:25.732Z,97627.41
2023-01-18T13:30:09.322Z,97627.69
2023-01-18T13:32:44.961Z,97630.78
2023-01-18T13:35:23.282Z,97629.38
2023-01-18T13:38:01.002Z,97632.19
2023-01-18T13:40:40.788Z,97634.06
2023-01-18T13:43:32.691Z,97640.97
2023-01-18T13:46:23.519Z,97647.28
2023-01-18T13:48:58.409Z,97654.06
2023-01-18T13:51:54.779Z,97662.91
2023-01-18T13:55:06.910Z,97668.63
2023-01-18T13:57:39.900Z,97672.06
2023-01-18T14:00:25.027Z,97683.84
2023-01-18T14:03:07.306Z,97688.72
2023-01-18T14:05:45.101Z,97691.63
2023-01-18T14:08:23.769Z,97697.25
2023-01-18T14:11:05.366Z,97700.16
2023-01-18T14:14:24.872Z,97706.88
2023-01-18T14:17:04.491Z,97718.44
2023-01-18T14:20:15.302Z,97730.88
2023-01-18T14:23:05.489Z,97726.09
2023-01-18T14:26:15.133Z,97727.97
2023-01-18T14:28:51.360Z,97737.06
2023-01-18T14:31:29.436Z,97750.59
2023-01-18T14:34:36.075Z,97753.38
2023-01-18T14:37:27.127Z,97765.22
2023-01-18T14:40:19.972Z,97762.25
2023-01-18T14:42:56.043Z,97769.63
2023-01-18T14:45:32.215Z,97774.34
2023-01-18T14:48:11.023Z,97776.38
2023-01-18T14:50:46.863Z,97784.59
2023-01-18T14:53:24.717Z,97782.94
2023-01-18T14:56:16.239Z,97786.47
2023-01-18T14:58:54.224Z,97790.28
2023-01-18T15:01:31.419Z,97797.41
2023-01-18T15:04:06.666Z,97802.75
2023-01-18T15:06:44.623Z,97805.56
2023-01-18T15:09:21.673Z,97808.19
2023-01-18T15:12:00.156Z,97808.09
2023-01-18T15:14:35.759Z,97804.47
2023-01-18T15:17:12.021Z,97814.06
2023-01-18T15:19:47.410Z,97839.63
2023-01-18T15:22:22.464Z,97859.00
2023-01-18T15:24:59.016Z,97868.78
2023-01-18T15:27:33.926Z,97874.03
2023-01-18T15:30:14.176Z,97881.03
2023-01-18T15:32:48.975Z,97882.09
2023-01-18T15:35:25.429Z,97887.44
2023-01-18T15:37:58.860Z,97889.16
2023-01-18T15:40:32.856Z,97903.16
2023-01-18T15:43:09.238Z,97903.47
2023-01-18T15:45:49.561Z,97911.78
2023-01-18T15:48:24.234Z,97913.63
2023-01-18T15:50:58.741Z,97930.38
2023-01-18T15:53:35.725Z,97942.59
2023-01-18T15:56:10.086Z,97946.03
2023-01-18T15:58:47.141Z,97951.03
2023-01-18T16:01:22.197Z,97955.47
2023-01-18T16:03:58.797Z,97958.88
2023-01-18T16:06:34.277Z,97959.75
2023-01-18T16:09:21.099Z,97973.53
2023-01-18T16:11:57.015Z,97969.25
2023-01-18T16:14:40.516Z,97982.44
2023-01-18T16:17:16.649Z,97983.38
2023-01-18T16:19:52.307Z,97989.66
2023-01-18T16:22:27.258Z,97992.34
2023-01-18T16:25:03.399Z,97994.16
2023-01-18T16:27:48.473Z,98006.28
2023-01-18T16:30:34.439Z,98007.31
2023-01-18T16:33:10.948Z,98012.59
2023-01-18T16:35:48.422Z,98020.50
2023-01-18T16:38:21.929Z,98022.19
2023-01-18T16:40:55.800Z,98029.22
2023-01-18T16:43:30.188Z,98029.31
2023-01-18T16:46:04.865Z,98043.31
2023-01-18T16:48:38.091Z,98051.16
2023-01-18T16:51:33.300Z,98057.22
2023-01-18T16:54:06.685Z,98066.19
2023-01-18T16:56:40.326Z,98069.84
2023-01-18T16:59:19.577Z,98073.47
2023-01-18T17:01:54.436Z,98078.03
2023-01-18T17:04:27.732Z,98093.03
2023-01-18T17:07:01.065Z,98093.09
2023-01-18T17:09:40.398Z,98096.69
2023-01-18T17:12:20.516Z,98110.69
2023-01-18T17:14:53.490Z,98111.53
2023-01-18T17:17:27.949Z,98109.84
2023-01-18T17:20:00.956Z,98113.41
2023-01-18T17:22:33.917Z,98118.59
2023-01-18T17:25:07.739Z,98124.72
2023-01-18T17:27:40.883Z,98131.84
2023-01-18T17:30:16.249Z,98140.66
2023-01-18T17:32:51.046Z,98142.44
2023-01-18T17:35:25.336Z,98147.78
2023-01-18T17:38:05.903Z,98150.56
2023-01-18T17:40:44.753Z,98155.03
2023-01-18T17:43:31.996Z,98157.75
2023-01-18T17:46:06.566Z,98170.91
2023-01-18T17:48:41.111Z,98168.28
2023-01-18T17:51:15.322Z,98185.00
2023-01-18T17:53:48.296Z,98171.81
2023-01-18T17:56:21.706Z,98178.69
2023-01-18T17:58:55.107Z,98179.44
2023-01-18T18:01:28.199Z,98180.16
2023-01-18T18:04:02.660Z,98180.97
2023-01-18T18:06:38.191Z,98182.59
2023-01-18T18:09:15.895Z,98185.16
2023-01-18T18:11:49.036Z,98189.44
2023-01-18T18:14:22.266Z,98199.97
2023-01-18T18:16:55.347Z,98214.88
2023-01-18T18:19:30.252Z,98224.53
2023-01-18T18:22:03.402Z,98242.97
2023-01-18T18:24:36.500Z,98256.13
2023-01-18T18:27:09.522Z,98269.31
2023-01-18T18:29:42.602Z,98271.03
2023-01-18T18:32:17.126Z,98286.78
2023-01-18T18:34:51.533Z,98304.31
2023-01-18T18:37:24.642Z,98305.94
2023-01-18T18:39:57.554Z,98314.69
2023-01-18T18:42:30.620Z,98331.34
2023-01-18T18:45:03.779Z,98340.81
2023-01-18T18:47:38.880Z,98337.16
2023-01-18T18:50:13.292Z,98357.38
2023-01-18T18:52:46.504Z,98356.38
2023-01-18T18:55:19.630Z,98369.47
2023-01-18T18:57:52.730Z,98370.25
2023-01-18T19:00:27.434Z,98379.88
2023-01-18T19:03:02.209Z,98385.09
2023-01-18T19:05:37.228Z,98387.66
2023-01-18T19:08:10.217Z,98404.25
2023-01-18T19:10:43.211Z,98396.53
2023-01-18T19:13:16.671Z,98401.81
2023-01-18T19:15:51.306Z,98398.34
2023-01-18T19:18:24.509Z,98416.84
2023-01-18T19:20:58.959Z,98418.63
2023-01-18T19:23:31.997Z,98431.81
2023-01-18T19:26:05.063Z,98424.81
2023-01-18T19:28:38.280Z,98421.41
2023-01-18T19:31:11.838Z,98422.19
2023-01-18T19:33:44.886Z,98422.19
2023-01-18T19:36:19.251Z,98427.44
2023-01-18T19:38:59.376Z,98427.38
2023-01-18T19:41:33.310Z,98424.69
2023-01-18T19:44:06.643Z,98428.16
2023-01-18T19:46:39.905Z,98428.09
2023-01-18T19:49:13.118Z,98442.03
2023-01-18T19:51:47.498Z,98445.56
2023-01-18T19:54:20.567Z,98463.13
2023-01-18T19:56:56.017Z,98477.19
2023-01-18T19:59:29.200Z,98486.03
2023-01-18T20:02:02.390Z,98497.44
2023-01-18T20:04:36.591Z,98499.13
2023-01-18T20:07:12.752Z,98492.97
2023-01-18T20:09:45.961Z,98500.72
2023-01-18T20:12:18.987Z,98489.28
2023-01-18T20:14:52.070Z,98495.28
2023-01-18T20:17:25.015Z,98493.41
2023-01-18T20:19:57.950Z,98499.53
2023-01-18T20:22:32.267Z,98503.00
2023-01-18T20:25:06.248Z,98496.91
2023-01-18T20:27:40.386Z,98502.19
2023-01-18T20:30:14.171Z,98518.00
2023-01-18T20:32:47.749Z,98528.47
2023-01-18T20:35:21.699Z,98540.75
2023-01-18T20:37:56.433Z,98548.09
2023-01-18T20:40:35.214Z,98556.38
2023-01-18T20:43:08.609Z,98554.53
2023-01-18T20:45:41.689Z,98560.59
2023-01-18T20:48:14.837Z,98564.09
2023-01-18T20:50:47.982Z,98565.88
2023-01-18T20:53:22.367Z,98574.63
2023-01-18T20:55:55.598Z,98592.25
2023-01-18T20:58:31.767Z,98607.91
2023-01-18T21:01:08.486Z,98609.56
2023-01-18T21:03:41.556Z,98615.63
2023-01-18T21:06:16.073Z,98619.94
2023-01-18T21:08:52.895Z,98628.69
2023-01-18T21:11:26.937Z,98623.44
2023-01-18T21:14:00.249Z,98625.09
2023-01-18T21:16:33.344Z,98626.75
2023-01-18T21:19:06.364Z,98628.44
2023-01-18T21:21:40.053Z,98626.66
2023-01-18T21:24:14.471Z,98618.63
2023-01-18T21:26:47.537Z,98625.56
2023-01-18T21:29:20.643Z,98624.72
2023-01-18T21:31:57.324Z,98622.06
2023-01-18T21:34:30.526Z,98634.44
2023-01-18T21:37:03.789Z,98660.03
2023-01-18T21:39:38.168Z,98675.84
2023-01-18T21:42:29.489Z,98696.91
2023-01-18T21:45:19.655Z,98704.75
2023-01-18T21:47:52.617Z,98706.47
2023-01-18T21:50:43.345Z,98708.19
2023-01-18T21:53:33.646Z,98709.91
2023-01-18T21:56:08.302Z,98709.06
2023-01-18T21:58:58.067Z,98695.81
2023-01-18T22:01:34.281Z,98703.66
2023-01-18T22:04:27.317Z,98700.84
2023-01-18T22:07:01.203Z,98697.19
2023-01-18T22:09:35.012Z,98688.25
2023-01-18T22:12:09.519Z,98695.56
2023-01-18T22:14:42.499Z,98700.31
2023-01-18T22:17:15.499Z,98704.69
2023-01-18T22:19:48.653Z,98716.97
2023-01-18T22:22:21.657Z,98709.97
2023-01-18T22:24:56.501Z,98706.47
2023-01-18T22:27:30.887Z,98722.31
2023-01-18T22:30:05.690Z,98707.44
2023-01-18T22:32:40.830Z,98725.78
2023-01-18T22:35:13.867Z,98717.81
2023-01-18T22:37:47.302Z,98724.72
2023-01-18T22:40:21.620Z,98726.44
2023-01-18T22:42:56.931Z,98723.81
2023-01-18T22:45:30.179Z,98725.53
2023-01-18T22:48:03.408Z,98722.91
2023-01-18T22:50:36.699Z,98714.09
2023-01-18T22:53:09.722Z,98722.91
2023-01-18T22:55:42.692Z,98734.31
2023-01-18T22:58:17.844Z,98748.28
2023-01-18T23:00:51.016Z,98757.88
2023-01-18T23:03:26.597Z,98754.31
2023-01-18T23:06:01.432Z,98755.16
2023-01-18T23:08:42.538Z,98762.25
2023-01-18T23:11:17.321Z,98751.63
2023-01-18T23:14:11.742Z,98764.75
2023-01-18T23:17:06.003Z,98769.88
2023-01-18T23:19:38.973Z,98777.69
2023-01-18T23:22:11.979Z,98779.41
2023-01-18T23:24:44.978Z,98786.34
2023-01-18T23:27:17.955Z,98788.03
2023-01-18T23:29:56.642Z,98798.47
2023-01-18T23:32:31.584Z,98803.69
2023-01-18T23:35:06.131Z,98801.06
2023-01-18T23:37:39.108Z,98805.50
2023-01-18T23:40:30.802Z,98816.13
2023-01-18T23:43:21.127Z,98818.75
2023-01-18T23:46:13.232Z,98831.03
2023-01-18T23:49:03.445Z,98846.06
2023-01-18T23:51:53.636Z,98849.53
2023-01-18T23:54:26.775Z,98856.50
2023-01-18T23:56:59.750Z,98850.44
2023-01-18T23:59:32.703Z,98865.41
